Time,TemperatureF,DewpointF,PressureIn,WindDirection,WindDirectionDegrees,WindSpeedMPH,WindSpeedGustMPH,Humidity,HourlyPrecipIn,Conditions,Clouds,dailyrainin,SolarRadiationWatts/m^2,SoftwareType,DateUTC
2013-02-21 00:00:00,20.0,14.0,-100.00,NE,45,4.0,-999.0,75,-99.99,,,-99.99,0.000000,,2013-02-21 05:00:00,
2013-02-21 00:37:00,20.0,14.0,-100.00,NE,45,4.0,-999.0,75,-99.99,,,-99.99,0.000000,,2013-02-21 05:37:00,
2013-02-21 00:46:00,20.0,14.0,-100.00,NE,45,4.0,-999.0,75,-99.99,,,-99.99,0.000000,,2013-02-21 05:46:00,
2013-02-21 03:00:00,20.0,13.0,-100.00,NNE,22,4.0,-999.0,75,-99.99,,,-99.99,0.000000,,2013-02-21 08:00:00,
2013-02-21 03:42:00,20.0,13.0,-100.00,NNE,22,4.0,-999.0,75,-99.99,,,-99.99,0.000000,,2013-02-21 08:42:00,
2013-02-21 03:52:00,20.0,13.0,-100.00,NNE,22,4.0,-999.0,75,-99.99,,,-99.99,0.000000,,2013-02-21 08:52:00,
2013-02-21 06:00:00,19.0,13.0,-100.00,NNE,22,5.0,-999.0,77,-99.99,,,-99.99,0.000000,,2013-02-21 11:00:00,
2013-02-21 06:41:00,19.0,13.0,-100.00,NNE,22,5.0,-999.0,77,-99.99,,,-99.99,0.000000,,2013-02-21 11:41:00,
2013-02-21 06:52:00,19.0,13.0,-100.00,NNE,22,5.0,-999.0,77,-99.99,,,-99.99,0.000000,,2013-02-21 11:52:00,
2013-02-21 09:00:00,20.0,14.0,-100.00,NE,45,4.0,-999.0,76,-99.99,,,-99.99,58.000000,,2013-02-21 14:00:00,
2013-02-21 09:42:00,20.0,14.0,-100.00,NE,45,4.0,-999.0,76,-99.99,,,-99.99,58.000000,,2013-02-21 14:42:00,
2013-02-21 09:52:00,20.0,14.0,-100.00,NE,45,4.0,-999.0,76,-99.99,,,-99.99,58.000000,,2013-02-21 14:52:00,
2013-02-21 12:00:00,24.0,15.0,-100.00,East,90,5.0,-999.0,68,-99.99,,,-99.99,310.880005,,2013-02-21 17:00:00,
2013-02-21 12:42:00,24.0,15.0,-100.00,East,90,5.0,-999.0,68,-99.99,,,-99.99,310.880005,,2013-02-21 17:42:00,
2013-02-21 12:52:00,24.0,15.0,-100.00,East,90,5.0,-999.0,68,-99.99,,,-99.99,310.880005,,2013-02-21 17:52:00,
2013-02-21 15:00:00,25.0,16.0,-100.00,East,90,7.0,-999.0,66,-99.99,,,-99.99,302.760010,,2013-02-21 20:00:00,
2013-02-21 15:42:00,25.0,16.0,-100.00,East,90,7.0,-999.0,66,-99.99,,,-99.99,302.760010,,2013-02-21 20:42:00,
2013-02-21 15:53:00,25.0,16.0,-100.00,East,90,7.0,-999.0,66,-99.99,,,-99.99,302.760010,,2013-02-21 20:53:00,
2013-02-21 18:00:00,25.0,16.0,-100.00,East,90,8.0,-999.0,69,-99.99,,,-99.99,47.560001,,2013-02-21 23:00:00,
2013-02-21 18:42:00,25.0,16.0,-100.00,East,90,8.0,-999.0,69,-99.99,,,-99.99,47.560001,,2013-02-21 23:42:00,
2013-02-21 18:52:00,25.0,16.0,-100.00,East,90,8.0,-999.0,69,-99.99,,,-99.99,47.560001,,2013-02-21 23:52:00,
2013-02-21 21:00:00,24.0,16.0,-100.00,East,90,10.0,-999.0,72,-99.99,,,-99.99,0.000000,,2013-02-22 02:00:00,
2013-02-21 21:42:00,24.0,16.0,-100.00,East,90,10.0,-999.0,72,-99.99,,,-99.99,0.000000,,2013-02-22 02:42:00,
2013-02-21 21:52:00,24.0,16.0,-100.00,East,90,10.0,-999.0,72,-99.99,,,-99.99,0.000000,,2013-02-22 02:52:00,